createdAt,value
2023-04-03T00:01:09.494Z,7.00
2023-04-03T00:03:37.850Z,6.90
2023-04-03T00:06:07.660Z,6.90
2023-04-03T00:08:35.536Z,6.80
2023-04-03T00:11:05.466Z,6.80
2023-04-03T00:13:33.678Z,6.90
2023-04-03T00:16:01.871Z,6.80
2023-04-03T00:18:29.847Z,6.90
2023-04-03T00:20:57.638Z,6.80
2023-04-03T00:23:25.456Z,6.80
2023-04-03T00:25:53.584Z,6.80
2023-04-03T00:28:22.847Z,6.80
2023-04-03T00:30:51.240Z,6.80
2023-04-03T00:35:50.587Z,6.50
2023-04-03T00:38:19.033Z,6.50
2023-04-03T00:40:49.080Z,6.60
2023-04-03T00:43:18.992Z,6.60
2023-04-03T00:45:50.057Z,6.70
2023-04-03T00:48:21.869Z,6.60
2023-04-03T00:50:50.688Z,6.50
2023-04-03T00:53:22.979Z,6.60
2023-04-03T00:55:52.653Z,6.60
2023-04-03T00:58:23.624Z,6.40
2023-04-03T01:00:58.681Z,6.30
2023-04-03T01:03:26.793Z,6.40
2023-04-03T01:05:54.739Z,6.50
2023-04-03T01:08:22.643Z,6.50
2023-04-03T01:10:51.014Z,6.40
2023-04-03T01:13:26.467Z,6.40
2023-04-03T01:15:56.441Z,6.30
2023-04-03T01:18:26.127Z,6.30
2023-04-03T01:21:30.020Z,6.30
2023-04-03T01:24:23.609Z,6.50
2023-04-03T01:26:51.449Z,6.40
2023-04-03T01:29:20.250Z,6.30
2023-04-03T01:31:57.362Z,6.40
2023-04-03T01:34:25.771Z,6.40
2023-04-03T01:36:54.085Z,6.30
2023-04-03T01:39:22.063Z,6.30
2023-04-03T01:41:49.995Z,6.30
2023-04-03T01:44:17.893Z,6.30
2023-04-03T01:46:45.660Z,6.30
2023-04-03T01:49:14.819Z,6.30
2023-04-03T01:51:42.628Z,6.30
2023-04-03T01:54:10.470Z,6.40
2023-04-03T01:56:39.919Z,6.30
2023-04-03T01:59:07.704Z,6.30
2023-04-03T02:01:35.510Z,6.40
2023-04-03T02:04:03.372Z,6.50
2023-04-03T02:06:32.548Z,6.40
2023-04-03T02:09:00.332Z,6.40
2023-04-03T02:11:28.156Z,6.40
2023-04-03T02:13:55.986Z,6.40
2023-04-03T02:16:23.867Z,6.30
2023-04-03T02:18:51.932Z,6.30
2023-04-03T02:21:19.782Z,6.20
2023-04-03T02:23:48.995Z,6.20
2023-04-03T02:26:18.102Z,6.20
2023-04-03T02:28:46.003Z,6.10
2023-04-03T02:31:13.911Z,6.20
2023-04-03T02:33:42.100Z,6.10
2023-04-03T02:36:10.658Z,6.10
2023-04-03T02:38:39.020Z,6.10
2023-04-03T02:41:09.930Z,6.10
2023-04-03T02:43:37.741Z,6.10
2023-04-03T02:46:06.363Z,6.10
2023-04-03T02:48:36.188Z,6.00
2023-04-03T02:51:04.175Z,6.00
2023-04-03T02:53:31.987Z,6.00
2023-04-03T02:55:59.789Z,6.00
2023-04-03T02:58:28.910Z,5.90
2023-04-03T03:00:56.684Z,5.90
2023-04-03T03:03:24.679Z,5.80
2023-04-03T03:05:52.462Z,5.80
2023-04-03T03:08:21.159Z,5.80
2023-04-03T03:10:48.978Z,5.80
2023-04-03T03:13:16.809Z,5.60
2023-04-03T03:15:46.048Z,5.60
2023-04-03T03:18:13.903Z,5.60
2023-04-03T03:20:41.703Z,5.70
2023-04-03T03:23:09.521Z,5.70
2023-04-03T03:25:40.336Z,5.60
2023-04-03T03:28:08.394Z,5.60
2023-04-03T03:30:36.512Z,5.50
2023-04-03T03:33:06.035Z,5.60
2023-04-03T03:35:34.162Z,5.60
2023-04-03T03:38:01.999Z,5.60
2023-04-03T03:40:29.801Z,5.50
2023-04-03T03:42:57.584Z,5.60
2023-04-03T03:45:26.100Z,5.50
2023-04-03T03:47:53.940Z,5.50
2023-04-03T03:50:23.147Z,5.50
2023-04-03T03:52:50.968Z,5.40
2023-04-03T03:55:18.904Z,5.50
2023-04-03T03:57:46.787Z,5.40
2023-04-03T04:00:15.403Z,5.40
2023-04-03T04:02:43.454Z,5.40
2023-04-03T04:05:11.359Z,5.50
2023-04-03T04:07:40.602Z,5.50
2023-04-03T04:10:09.504Z,5.40
2023-04-03T04:12:37.486Z,5.60
2023-04-03T04:15:06.041Z,5.50
2023-04-03T04:17:33.930Z,5.60
2023-04-03T04:20:01.767Z,5.60
2023-04-03T04:22:29.555Z,5.60
2023-04-03T04:24:58.761Z,5.70
2023-04-03T04:27:26.602Z,5.70
2023-04-03T04:29:54.372Z,5.80
2023-04-03T04:32:22.190Z,5.80
2023-04-03T04:34:50.030Z,5.80
2023-04-03T04:37:17.831Z,5.80
2023-04-03T04:39:45.644Z,5.80
2023-04-03T04:42:16.744Z,5.70
2023-04-03T04:44:45.841Z,5.70
2023-04-03T04:47:13.670Z,5.70
2023-04-03T04:49:41.589Z,5.70
2023-04-03T04:52:09.484Z,5.80
2023-04-03T04:54:37.284Z,5.80
2023-04-03T04:57:05.467Z,5.80
2023-04-03T04:59:34.712Z,5.80
2023-04-03T05:02:02.599Z,5.80
2023-04-03T05:04:30.595Z,5.80
2023-04-03T05:06:58.414Z,5.80
2023-04-03T05:09:26.663Z,5.80
2023-04-03T05:11:54.486Z,5.80
2023-04-03T05:14:22.335Z,5.80
2023-04-03T05:16:53.681Z,5.80
2023-04-03T05:19:21.996Z,5.80
2023-04-03T05:21:50.220Z,5.90
2023-04-03T05:24:18.158Z,5.80
2023-04-03T05:26:46.310Z,5.80
2023-04-03T05:29:14.262Z,5.80
2023-04-03T05:31:42.113Z,5.90
2023-04-03T05:34:11.364Z,5.90
2023-04-03T05:36:39.282Z,5.90
2023-04-03T05:39:07.138Z,5.80
2023-04-03T05:41:34.929Z,5.80
2023-04-03T05:44:02.722Z,5.70
2023-04-03T05:46:30.874Z,5.80
2023-04-03T05:48:58.776Z,6.00
2023-04-03T05:51:31.298Z,5.90
2023-04-03T05:54:04.709Z,5.90
2023-04-03T05:56:32.480Z,5.90
2023-04-03T05:59:00.386Z,6.00
2023-04-03T06:01:28.178Z,5.90
2023-04-03T06:03:56.854Z,5.90
2023-04-03T06:06:24.732Z,6.00
2023-04-03T06:08:54.072Z,6.00
2023-04-03T06:11:22.550Z,6.10
2023-04-03T06:13:50.368Z,6.20
2023-04-03T06:16:20.409Z,6.30
2023-04-03T06:18:48.188Z,6.20
2023-04-03T06:21:16.008Z,6.20
2023-04-03T06:23:43.820Z,6.30
2023-04-03T06:26:12.932Z,6.40
2023-04-03T06:28:40.739Z,6.50
2023-04-03T06:31:08.528Z,6.50
2023-04-03T06:33:36.663Z,6.60
2023-04-03T06:36:07.471Z,6.60
2023-04-03T06:38:35.891Z,6.70
2023-04-03T06:41:03.700Z,6.70
2023-04-03T06:43:34.506Z,6.80
2023-04-03T06:46:02.872Z,6.80
2023-04-03T06:48:30.834Z,6.90
2023-04-03T06:50:58.691Z,6.90
2023-04-03T06:53:27.136Z,6.90
2023-04-03T06:55:54.887Z,6.80
2023-04-03T06:58:23.322Z,6.80
2023-04-03T07:00:52.484Z,7.00
2023-04-03T07:03:20.262Z,6.90
2023-04-03T07:05:48.001Z,6.80
2023-04-03T07:08:15.737Z,6.80
2023-04-03T07:10:43.714Z,6.80
2023-04-03T07:13:11.902Z,6.80
2023-04-03T07:15:39.953Z,6.90
2023-04-03T07:18:09.376Z,6.90
2023-04-03T07:20:37.351Z,7.00
2023-04-03T07:23:05.171Z,7.00
2023-04-03T07:25:34.634Z,7.00
2023-04-03T07:28:02.821Z,7.00
2023-04-03T07:30:30.601Z,7.10
2023-04-03T07:32:58.442Z,7.10
2023-04-03T07:35:27.574Z,6.90
2023-04-03T07:37:55.346Z,6.90
2023-04-03T07:40:23.153Z,6.90
2023-04-03T07:42:51.177Z,7.10
2023-04-03T07:45:20.000Z,7.00
2023-04-03T07:47:48.893Z,7.00
2023-04-03T07:50:17.197Z,7.10
2023-04-03T07:52:47.187Z,7.20
2023-04-03T07:55:15.059Z,7.20
2023-04-03T07:57:43.457Z,7.30
2023-04-03T08:00:13.143Z,7.40
2023-04-03T08:02:41.009Z,7.20
2023-04-03T08:05:09.648Z,7.30
2023-04-03T08:07:38.872Z,7.20
2023-04-03T08:10:09.074Z,7.10
2023-04-03T08:12:37.785Z,7.20
2023-04-03T08:15:07.323Z,7.10
2023-04-03T08:17:35.689Z,7.10
2023-04-03T08:20:03.530Z,7.20
2023-04-03T08:22:31.982Z,7.40
2023-04-03T08:24:59.915Z,7.60
2023-04-03T08:27:29.508Z,7.60
2023-04-03T08:29:57.848Z,7.70
2023-04-03T08:32:25.756Z,7.90
2023-04-03T08:34:53.570Z,7.90
2023-04-03T08:37:21.458Z,7.90
2023-04-03T08:39:49.578Z,7.80
2023-04-03T08:42:26.542Z,7.90
2023-04-03T08:45:01.113Z,7.90
2023-04-03T08:47:38.589Z,7.80
2023-04-03T08:50:10.772Z,7.90
2023-04-03T08:52:42.975Z,7.70
2023-04-03T08:55:21.893Z,7.30
2023-04-03T08:57:51.370Z,7.10
2023-04-03T09:00:24.583Z,7.40
2023-04-03T09:02:54.541Z,7.70
2023-04-03T09:05:31.076Z,7.90
2023-04-03T09:08:02.468Z,8.10
2023-04-03T09:10:34.993Z,8.10
2023-04-03T09:13:08.117Z,8.30
2023-04-03T09:15:39.363Z,8.90
2023-04-03T09:18:16.784Z,8.70
2023-04-03T09:20:49.242Z,8.60
2023-04-03T09:23:24.937Z,9.30
2023-04-03T09:25:55.502Z,9.50
2023-04-03T09:28:23.315Z,9.70
2023-04-03T09:30:52.434Z,9.70
2023-04-03T09:33:21.441Z,10.10
2023-04-03T09:35:50.718Z,10.20
2023-04-03T09:38:22.038Z,10.90
2023-04-03T09:40:52.414Z,12.00
2023-04-03T09:43:32.035Z,11.00
2023-04-03T09:46:21.059Z,11.80
2023-04-03T09:49:08.263Z,11.50
2023-04-03T09:51:38.400Z,11.10
2023-04-03T09:54:28.136Z,11.10
2023-04-03T09:56:57.570Z,10.80
2023-04-03T09:59:25.826Z,11.10
2023-04-03T10:02:02.923Z,10.90
2023-04-03T10:04:41.979Z,10.30
2023-04-03T10:07:30.851Z,10.00
2023-04-03T10:09:59.919Z,10.10
2023-04-03T10:12:27.852Z,9.60
2023-04-03T10:15:00.047Z,9.10
2023-04-03T10:17:40.175Z,8.80
2023-04-03T10:20:24.367Z,8.60
2023-04-03T10:23:03.551Z,9.00
2023-04-03T10:25:42.049Z,9.00
2023-04-03T10:28:14.713Z,9.20
2023-04-03T10:30:50.865Z,9.30
2023-04-03T10:33:49.487Z,9.40
2023-04-03T10:36:29.074Z,9.10
2023-04-03T10:39:04.332Z,8.70
2023-04-03T10:41:41.411Z,8.60
2023-04-03T10:44:18.034Z,8.40
2023-04-03T10:46:49.720Z,8.30
2023-04-03T10:49:35.055Z,8.20
2023-04-03T10:52:12.520Z,8.00
2023-04-03T10:54:42.817Z,8.00
2023-04-03T10:57:13.890Z,7.80
2023-04-03T10:59:45.784Z,7.80
2023-04-03T11:02:21.587Z,7.80
2023-04-03T11:04:55.648Z,7.70
2023-04-03T11:07:27.460Z,7.70
2023-04-03T11:09:59.904Z,7.60
2023-04-03T11:12:32.763Z,7.70
2023-04-03T11:15:03.422Z,8.00
2023-04-03T11:17:38.117Z,7.90
2023-04-03T11:20:16.501Z,7.90
2023-04-03T11:22:47.333Z,7.80
2023-04-03T11:25:23.220Z,8.10
2023-04-03T11:27:57.043Z,8.00
2023-04-03T11:30:29.085Z,8.00
2023-04-03T11:33:10.372Z,8.00
2023-04-03T11:35:44.564Z,8.00
2023-04-03T11:38:21.377Z,8.20
2023-04-03T11:40:49.933Z,8.20
2023-04-03T11:43:26.626Z,8.10
2023-04-03T11:45:59.574Z,8.20
2023-04-03T11:48:50.894Z,8.00
2023-04-03T11:51:42.518Z,8.00
2023-04-03T11:54:44.515Z,7.90
2023-04-03T11:57:47.706Z,8.00
2023-04-03T12:00:54.065Z,8.10
2023-04-03T12:03:38.171Z,8.20
2023-04-03T12:06:53.545Z,8.30
2023-04-03T12:09:37.096Z,8.20
2023-04-03T12:12:29.646Z,8.40
2023-04-03T12:14:57.763Z,8.40
2023-04-03T12:17:30.331Z,8.60
2023-04-03T12:19:58.221Z,8.60
2023-04-03T12:22:27.376Z,8.60
2023-04-03T12:24:55.515Z,8.70
2023-04-03T12:27:30.763Z,8.60
2023-04-03T12:30:06.145Z,8.60
2023-04-03T12:33:05.759Z,8.50
2023-04-03T12:35:42.174Z,8.60
2023-04-03T12:38:39.830Z,8.70
2023-04-03T12:41:30.134Z,8.60
2023-04-03T12:44:10.307Z,8.50
2023-04-03T12:46:41.623Z,8.50
2023-04-03T12:49:35.064Z,8.50
2023-04-03T12:52:06.989Z,8.30
2023-04-03T12:54:40.664Z,8.20
2023-04-03T12:57:13.971Z,8.30
2023-04-03T12:59:42.262Z,8.50
2023-04-03T13:02:25.692Z,8.60
2023-04-03T13:04:55.058Z,8.70
2023-04-03T13:07:31.671Z,8.80
2023-04-03T13:10:15.547Z,8.90
2023-04-03T13:12:49.359Z,8.70
2023-04-03T13:15:20.463Z,8.50
2023-04-03T13:17:50.965Z,8.60
2023-04-03T13:20:23.572Z,8.40
2023-04-03T13:22:55.230Z,8.50
2023-04-03T13:25:28.513Z,8.50
2023-04-03T13:28:10.049Z,8.50
2023-04-03T13:30:42.300Z,8.40
2023-04-03T13:33:23.640Z,8.30
2023-04-03T13:35:57.791Z,8.50
2023-04-03T13:38:28.473Z,8.50
2023-04-03T13:41:01.514Z,8.50
2023-04-03T13:43:30.822Z,8.60
2023-04-03T13:46:05.880Z,8.50
2023-04-03T13:48:42.441Z,8.50
2023-04-03T13:51:22.572Z,8.50
2023-04-03T13:53:54.347Z,8.50
2023-04-03T13:56:32.482Z,8.60
2023-04-03T13:59:05.932Z,8.70
2023-04-03T14:01:54.866Z,8.70
2023-04-03T14:04:26.562Z,8.70
2023-04-03T14:06:54.928Z,8.50
2023-04-03T14:09:25.097Z,8.40
2023-04-03T14:11:56.001Z,8.50
2023-04-03T14:14:29.742Z,8.30
2023-04-03T14:17:00.750Z,8.30
2023-04-03T14:19:30.637Z,8.30
2023-04-03T14:21:59.431Z,8.50
2023-04-03T14:24:28.222Z,8.50
2023-04-03T14:26:57.577Z,8.50
2023-04-03T14:29:26.000Z,8.50
2023-04-03T14:32:03.965Z,8.50
2023-04-03T14:34:39.869Z,8.50
2023-04-03T14:37:11.081Z,8.50
2023-04-03T14:39:38.964Z,8.40
2023-04-03T14:42:08.389Z,8.40
2023-04-03T14:44:36.217Z,8.50
2023-04-03T14:47:04.470Z,8.50
2023-04-03T14:49:32.867Z,8.40
2023-04-03T14:52:00.962Z,8.40
2023-04-03T14:54:30.101Z,8.40
2023-04-03T14:57:00.552Z,8.40
2023-04-03T14:59:30.974Z,8.30
2023-04-03T15:01:58.767Z,8.30
2023-04-03T15:04:27.241Z,8.30
2023-04-03T15:06:55.250Z,8.30
2023-04-03T15:09:25.444Z,8.20
2023-04-03T15:11:56.314Z,8.20
2023-04-03T15:14:36.192Z,7.90
2023-04-03T15:17:06.739Z,7.80
2023-04-03T15:19:39.618Z,7.80
2023-04-03T15:22:07.651Z,7.90
2023-04-03T15:24:35.533Z,8.00
2023-04-03T15:27:03.726Z,7.90
2023-04-03T15:29:31.602Z,7.90
2023-04-03T15:31:59.430Z,7.90
2023-04-03T15:34:29.724Z,7.90
2023-04-03T15:36:57.489Z,7.90
2023-04-03T15:39:27.256Z,8.00
2023-04-03T15:41:56.046Z,8.00
2023-04-03T15:44:23.906Z,8.00
2023-04-03T15:46:52.413Z,8.10
2023-04-03T15:49:20.940Z,8.10
2023-04-03T15:51:50.173Z,8.10
2023-04-03T15:54:18.345Z,8.10
2023-04-03T15:56:46.593Z,8.10
2023-04-03T15:59:14.400Z,8.10
2023-04-03T16:01:42.353Z,8.00
2023-04-03T16:04:11.094Z,8.00
2023-04-03T16:06:39.844Z,8.10
2023-04-03T16:09:09.568Z,7.90
2023-04-03T16:11:40.129Z,7.90
2023-04-03T16:14:08.550Z,7.90
2023-04-03T16:16:37.684Z,7.80
2023-04-03T16:19:06.375Z,7.70
2023-04-03T16:21:34.909Z,7.80
2023-04-03T16:24:03.558Z,7.60
2023-04-03T16:26:33.412Z,7.60
2023-04-03T16:29:01.238Z,7.60
2023-04-03T16:31:29.475Z,7.70
2023-04-03T16:33:58.266Z,7.70
2023-04-03T16:36:26.614Z,7.60
2023-04-03T16:38:54.559Z,7.50
2023-04-03T16:41:22.358Z,7.60
2023-04-03T16:43:52.010Z,7.60
2023-04-03T16:46:20.044Z,7.60
2023-04-03T16:48:47.959Z,7.60
2023-04-03T16:51:15.964Z,7.60
2023-04-03T16:53:43.960Z,7.60
2023-04-03T16:56:11.792Z,7.60
2023-04-03T16:58:39.624Z,7.50
2023-04-03T17:01:13.948Z,7.40
2023-04-03T17:03:41.829Z,7.40
2023-04-03T17:06:15.596Z,7.40
2023-04-03T17:08:43.791Z,7.40
2023-04-03T17:11:12.422Z,7.40
2023-04-03T17:13:40.325Z,7.40
2023-04-03T17:16:11.401Z,7.30
2023-04-03T17:18:41.491Z,7.30
2023-04-03T17:21:09.705Z,7.30
2023-04-03T17:23:39.516Z,7.20
2023-04-03T17:26:07.440Z,7.30
2023-04-03T17:28:35.335Z,7.30
2023-04-03T17:31:03.923Z,7.30
2023-04-03T17:33:32.244Z,7.30
2023-04-03T17:36:04.277Z,7.30
2023-04-03T17:38:33.330Z,7.30
2023-04-03T17:41:03.064Z,7.30
2023-04-03T17:43:31.064Z,7.30
2023-04-03T17:46:04.118Z,7.20
2023-04-03T17:48:32.951Z,7.20
2023-04-03T17:51:05.754Z,7.20
2023-04-03T17:53:33.555Z,7.10
2023-04-03T17:56:07.491Z,7.00
2023-04-03T17:58:35.859Z,7.00
2023-04-03T18:01:10.786Z,7.00
2023-04-03T18:03:38.725Z,7.00
2023-04-03T18:06:11.456Z,7.10
2023-04-03T18:08:41.805Z,7.10
2023-04-03T18:11:10.290Z,7.10
2023-04-03T18:13:38.596Z,7.20
2023-04-03T18:16:08.256Z,7.20
2023-04-03T18:18:36.273Z,7.10
2023-04-03T18:21:04.586Z,7.10
2023-04-03T18:23:36.070Z,7.10
2023-04-03T18:26:04.959Z,7.20
2023-04-03T18:28:33.169Z,7.10
2023-04-03T18:31:02.574Z,7.00
2023-04-03T18:33:30.495Z,7.00
2023-04-03T18:35:58.303Z,6.90
2023-04-03T18:38:26.155Z,6.90
2023-04-03T18:40:55.989Z,6.90
2023-04-03T18:43:24.615Z,6.90
2023-04-03T18:45:52.417Z,6.70
2023-04-03T18:48:21.264Z,6.70
2023-04-03T18:50:49.503Z,6.70
2023-04-03T18:53:17.428Z,6.70
2023-04-03T18:55:46.709Z,6.70
2023-04-03T18:58:15.960Z,6.80
2023-04-03T19:00:43.939Z,6.90
2023-04-03T19:03:12.729Z,6.90
2023-04-03T19:05:41.000Z,6.80
2023-04-03T19:08:09.148Z,6.80
2023-04-03T19:10:36.920Z,6.80
2023-04-03T19:13:04.743Z,6.90
2023-04-03T19:15:34.082Z,6.90
2023-04-03T19:18:01.972Z,6.90
2023-04-03T19:20:30.110Z,7.00
2023-04-03T19:22:57.952Z,6.80
2023-04-03T19:25:26.032Z,6.70
2023-04-03T19:27:53.970Z,6.70
2023-04-03T19:30:22.097Z,6.60
2023-04-03T19:32:51.562Z,6.70
2023-04-03T19:35:19.682Z,6.60
2023-04-03T19:37:50.763Z,6.70
2023-04-03T19:40:19.001Z,6.60
2023-04-03T19:42:46.991Z,6.60
2023-04-03T19:45:18.025Z,6.50
2023-04-03T19:47:47.131Z,6.40
2023-04-03T19:50:16.426Z,6.30
2023-04-03T19:52:44.688Z,6.30
2023-04-03T19:55:12.521Z,6.10
2023-04-03T19:57:40.870Z,6.10
2023-04-03T20:00:09.915Z,6.00
2023-04-03T20:02:37.825Z,5.90
2023-04-03T20:05:06.319Z,5.90
2023-04-03T20:07:35.671Z,5.80
2023-04-03T20:10:03.484Z,5.80
2023-04-03T20:12:31.325Z,5.70
2023-04-03T20:15:01.157Z,5.60
2023-04-03T20:17:28.976Z,5.60
2023-04-03T20:20:01.186Z,5.60
2023-04-03T20:22:29.052Z,5.60
2023-04-03T20:25:05.177Z,5.50
2023-04-03T20:27:34.633Z,5.50
2023-04-03T20:30:03.942Z,5.30
2023-04-03T20:32:33.590Z,5.40
2023-04-03T20:35:04.582Z,5.50
2023-04-03T20:37:32.945Z,5.50
2023-04-03T20:40:02.870Z,5.50
2023-04-03T20:42:30.783Z,5.40
2023-04-03T20:44:59.240Z,5.20
2023-04-03T20:47:27.933Z,5.20
2023-04-03T20:49:56.493Z,5.20
2023-04-03T20:52:24.306Z,5.00
2023-04-03T20:54:53.533Z,5.00
2023-04-03T20:57:22.745Z,4.70
2023-04-03T20:59:53.036Z,4.60
2023-04-03T21:02:21.161Z,4.60
2023-04-03T21:04:52.905Z,4.60
2023-04-03T21:07:58.564Z,4.40
2023-04-03T21:11:04.288Z,4.10
2023-04-03T21:14:09.669Z,4.00
2023-04-03T21:16:38.509Z,4.00
2023-04-03T21:19:15.581Z,3.90
2023-04-03T21:21:45.572Z,3.90
2023-04-03T21:24:16.651Z,4.10
2023-04-03T21:26:45.966Z,4.20
2023-04-03T21:29:13.976Z,4.20
2023-04-03T21:31:52.562Z,4.20
2023-04-03T21:34:23.439Z,4.30
2023-04-03T21:36:52.978Z,4.30
2023-04-03T21:39:21.540Z,4.30
2023-04-03T21:41:50.458Z,4.30
2023-04-03T21:44:18.476Z,4.30
2023-04-03T21:46:47.655Z,4.40
2023-04-03T21:49:16.172Z,4.20
2023-04-03T21:51:45.329Z,4.30
2023-04-03T21:54:13.176Z,4.30
2023-04-03T21:56:40.947Z,4.30
2023-04-03T21:59:08.858Z,4.30
2023-04-03T22:01:37.079Z,4.30
2023-04-03T22:04:05.091Z,4.20
2023-04-03T22:06:32.883Z,4.30
2023-04-03T22:09:02.245Z,4.20
2023-04-03T22:11:30.329Z,4.10
2023-04-03T22:13:58.200Z,4.10
2023-04-03T22:16:26.494Z,4.00
2023-04-03T22:18:54.933Z,4.20
2023-04-03T22:21:23.243Z,4.10
2023-04-03T22:23:52.536Z,4.10
2023-04-03T22:26:22.531Z,4.00
2023-04-03T22:28:50.380Z,4.20
2023-04-03T22:31:18.619Z,4.00
2023-04-03T22:33:46.584Z,4.10
2023-04-03T22:36:15.478Z,4.10
2023-04-03T22:38:44.025Z,4.20
2023-04-03T22:41:12.073Z,4.20
2023-04-03T22:43:41.448Z,4.10
2023-04-03T22:46:10.548Z,4.10
2023-04-03T22:48:38.724Z,4.10
2023-04-03T22:51:08.332Z,4.00
2023-04-03T22:53:36.481Z,4.00
2023-04-03T22:56:08.507Z,3.90
2023-04-03T22:58:36.826Z,3.90
2023-04-03T23:01:08.002Z,3.80
2023-04-03T23:03:36.494Z,3.70
2023-04-03T23:06:04.612Z,3.70
2023-04-03T23:08:34.387Z,3.80
2023-04-03T23:11:02.663Z,3.80
2023-04-03T23:13:30.846Z,3.80
2023-04-03T23:16:00.108Z,3.70
2023-04-03T23:18:31.268Z,3.70
2023-04-03T23:21:00.689Z,3.60
2023-04-03T23:23:28.481Z,3.60
2023-04-03T23:25:58.646Z,3.60
2023-04-03T23:28:27.144Z,3.50
2023-04-03T23:30:59.200Z,3.40
2023-04-03T23:33:27.034Z,3.10
2023-04-03T23:35:56.291Z,3.00
2023-04-03T23:38:24.118Z,2.90
2023-04-03T23:40:52.123Z,3.00
2023-04-03T23:43:19.972Z,2.90
2023-04-03T23:45:47.876Z,2.80
2023-04-03T23:48:15.808Z,2.70
2023-04-03T23:50:44.805Z,2.60
2023-04-03T23:53:13.956Z,2.40
2023-04-03T23:55:42.188Z,2.30
2023-04-03T23:58:10.651Z,2.30
